Flight Track Log - Related Links

Times and Time Zones

All times are in EST time to prevent confusion due to time zone crossing. See the ASQ5740 flight status page for this flight to view local times or setup timezone preferences in your user account.

Time Position Orientation Groundspeed Altitude Reporting Facility
EST Latitude Longitude Course Direction KTS MPH feet Rate Location/Type
Mon 02:59:18 PM 34.8069 -82.1844 68° East 267 307 5,200  Level Atlanta Center
Mon 03:00:18 PM 34.8561 -82.1175 48° Northeast 295 339 7,900 2,650 Climbing Atlanta Center
Mon 03:01:18 PM 34.9219 -82.0528 39° Northeast 302 348 10,500 1,750 Climbing Atlanta Center
Mon 03:02:18 PM 34.9956 -81.9725 42° Northeast 324 373 11,400 1,150 Climbing Atlanta Center
Mon 03:03:00 PM 35.3722 -81.6954 68° East  Level Estimated
Mon 03:03:18 PM 35.0911 -81.9344 18° North 350 403 12,800  Level Atlanta Center
Mon 03:04:18 PM 35.1786 -81.9397 357° North 359 413 14,000 1,350 Climbing Atlanta Center
Mon 03:05:18 PM 35.2956 -81.9394 360° North 365 420 15,500 1,550 Climbing Atlanta Center
Mon 03:06:18 PM 35.3756 -81.8583 40° Northeast 360 414 17,100 1,200 Climbing Atlanta Center
Mon 03:07:18 PM 35.4211 -81.7297 66° East 362 417 17,900 900 Climbing Atlanta Center
Mon 03:08:18 PM 35.4686 -81.6008 66° East 377 434 18,900 1,000 Climbing Atlanta Center
Mon 03:09:18 PM 35.5161 -81.4694 66° East 399 459 19,900 1,000 Climbing Atlanta Center
Mon 03:10:18 PM 35.5633 -81.3353 67° East 412 474 20,900 1,000 Climbing Atlanta Center
Mon 03:11:18 PM 35.6103 -81.1958 67° East 426 490 21,900 1,050 Climbing Atlanta Center
Mon 03:12:18 PM 35.6672 -81.0456 65° Northeast 440 506 23,000 900 Climbing Atlanta Center
Mon 03:13:18 PM 35.7158 -80.9081 66° East 440 506 23,700 550 Climbing Atlanta Center
Mon 03:14:18 PM 35.7664 -80.7653 66° East 440 506 24,100 492 Climbing Atlanta Center
Mon 03:16:21 PM 35.8683 -80.4800 66° East 456 525 25,200 522 Climbing Washington Center
Mon 03:17:22 PM 35.9203 -80.3319 67° East 467 537 25,700 496 Climbing Washington Center
Mon 03:18:22 PM 35.9719 -80.1811 67° East 472 543 26,200 504 Climbing Washington Center
Mon 03:19:21 PM 36.0325 -80.0203 65° Northeast 465 535 26,700 550 Climbing Washington Center
Mon 03:20:22 PM 36.1042 -79.8803 58° Northeast 465 535 27,300 496 Climbing Washington Center
Mon 03:21:22 PM 36.1714 -79.7553 56° Northeast 470 541 27,700 496 Climbing Washington Center
Mon 03:22:23 PM 36.2556 -79.6078 55° Northeast 482 555 28,300 496 Climbing Washington Center
Mon 03:23:23 PM 36.3242 -79.4875 55° Northeast 477 549 28,700 356 Climbing Washington Center
Mon 03:24:21 PM 36.3997 -79.3492 56° Northeast 477 549 29,000 153 Climbing Washington Center
Mon 03:25:21 PM 36.4792 -79.2083 55° Northeast 482 555 29,000  Level Washington Center
Mon 03:26:22 PM 36.5561 -79.0750 54° Northeast 482 555 29,000 -885 Level Washington Center
Mon 03:27:23 PM 36.6375 -78.9311 55° Northeast 482 555 27,200 -2,034 Descending Washington Center
Mon 03:28:20 PM 36.7189 -78.7764 57° Northeast 488 562 25,000 -1,119 Descending Washington Center
Mon 03:29:21 PM 36.7867 -78.6522 56° Northeast 462 532 25,000 -295 Level Washington Center
Mon 03:30:22 PM 36.8503 -78.5353 56° Northeast 426 490 24,400 -793 Descending Washington Center
Mon 03:31:22 PM 36.9067 -78.4361 55° Northeast 400 460 23,400 -992 Descending Washington Center
Mon 03:32:23 PM 36.9678 -78.3214 56° Northeast 395 455 22,400 -694 Descending Washington Center
Mon 03:33:23 PM 37.0328 -78.2119 53° Northeast 395 455 22,000 -203 Descending Washington Center
Mon 03:34:21 PM 37.1156 -78.1494 31° Northeast 358 412 22,000  Level Washington Center
Mon 03:35:21 PM 37.2006 -78.0844 31° Northeast 358 412 22,000  Level Washington Center
Mon 03:36:21 PM 37.2853 -78.0169 32° Northeast 353 406 22,000  Level Washington Center
Mon 03:37:23 PM 37.3722 -77.9492 32° Northeast 359 413 22,000  Level Washington Center
Mon 03:38:23 PM 37.4611 -77.8811 31° Northeast 359 413 22,000  Level Washington Center
Mon 03:39:21 PM 37.5478 -77.8183 30° Northeast 364 419 22,000 -559 Level Washington Center
Mon 03:40:21 PM 37.6406 -77.7633 25° Northeast 364 419 20,900 -1,488 Descending Washington Center
Mon 03:41:22 PM 37.7311 -77.7108 25° Northeast 359 413 19,000 -1,587 Descending Washington Center
Mon 03:42:22 PM 37.8175 -77.6581 26° Northeast 349 402 17,700 -1,550 Descending Washington Center
Mon 03:43:22 PM 37.9019 -77.6103 24° Northeast 337 388 15,900 -1,785 Descending Washington Center
Mon 03:44:23 PM 37.9839 -77.5625 25° Northeast 332 382 14,100 -1,714 Descending Washington Center
Mon 03:45:21 PM 38.0556 -77.5247 23° Northeast 319 367 12,500 -1,932 Descending Washington Center
Mon 03:46:21 PM 38.1481 -77.4692 25° Northeast 312 359 10,300 -1,190 Descending Washington Center
Mon 03:47:22 PM 38.2217 -77.4258 25° Northeast 295 339 10,100 -148 Descending Washington Center
Mon 03:48:23 PM 38.2956 -77.3803 26° Northeast 290 334 10,000 -356 Descending Washington Center
Mon 03:49:20 PM 38.3731 -77.3581 13° North 285 328 9,400 -1,169 Descending Washington Center
Mon 03:50:21 PM 38.4522 -77.3600 359° North 280 322 7,700 -1,561 Descending Washington Center
Mon 03:51:23 PM 38.5314 -77.3644 357° North 280 322 6,200 -1,400 Descending Washington Center
Mon 03:52:21 PM 38.6083 -77.3664 359° North 280 322 4,900 -1,121 Descending Washington Center
Mon 03:52:54 PM 38.6500 -77.3667 360° North 271 312 4,500 -581 Descending Potomac TRACON
Mon 03:53:54 PM 38.7167 -77.3667 360° North 269 310 4,000 -300 Descending Potomac TRACON
Mon 03:54:54 PM 38.8000 -77.3500 North 272 313 3,900 -198 Descending Potomac TRACON
Mon 03:55:55 PM 38.8833 -77.3500 360° North 274 315 3,600 -397 Descending Potomac TRACON
Mon 03:56:55 PM 38.9500 -77.3500 360° North 263 303 3,100 -300 Descending Potomac TRACON
Mon 03:57:55 PM 39.0167 -77.3500 360° North 227 261 3,000 -347 Descending Potomac TRACON
Mon 03:58:56 PM 39.0667 -77.3667 345° North 205 236 2,400 -522 Descending Potomac TRACON
Mon 03:59:50 PM 39.0500 -77.4167 247° West 157 181 2,000 -421 Descending Potomac TRACON
Mon 04:00:50 PM 39.0167 -77.4333 201° Southwest 137 158 1,600 -595 Descending Potomac TRACON
Mon 04:01:51 PM 38.9833 -77.4333 180° South 131 151 800 -787 Descending Potomac TRACON
Mon 04:03:00 PM 38.9474 -77.4599 191° South  Level Estimated
Mon 04:10:00 PM 38.9474 -77.4599 191° South  Level Estimated
Mon 04:11:00 PM 38.9474 -77.4599 191° South  Level Estimated

Login

Don't have an account? Register now (free) for customized features, flight alerts, and more!